Bom Sucesso, Brazil
Current Conditions -  °F | °C
As of 8:00 PM on Monday 20 Oct 2014 (Local Time) from SBBQ Reporting Station
Haze Haze  
Wind Chill: 66°   Ceiling: 900
Heat Index: 66°   Visibility: 2.5mi
Dew Point: 61°   Wind: 12mph
Humidity: 83%   Direction: 150°SSE
Pressure: 30.12"   Gusts: NA
Location:  21.03°S, 44.76°W
Report Text: SBBQ 202200Z 15010KT 4000 BR BKN009 FEW045TCU BKN100 19/16 Q1020
Loading
Personal Weather Stations






























Interactive Weather Map
Tropical Storm Tracking
New forecast layout! Learn more

10-Day Weather Forecast

Advertisements
Track Severe Weather on mobile